Time;durP1;ratioP1;P1;durP2;ratioP2;P2;SDS_P1;SDS_P2;PMS_P1;PMS_P2;Temp;Humidity;BMP_temperature;BMP_pressure;BME280_temperature;BME280_humidity;BME280_pressure;Samples;Min_cycle;Max_cycle;Signal;HPM_P1;HPM_P2
2021/12/01 00:00:23;;;;;;;;;;;14.60;99.90;;;;;;5116100;28;875;-52
2021/12/01 00:02:53;;;;;;;;;;;14.60;99.90;;;;;;5115903;28;828;-52
2021/12/01 00:05:20;;;;;;;;;;;14.50;99.90;;;;;;5098296;28;964;-52
2021/12/01 00:07:47;;;;;;;;;;;14.50;99.90;;;;;;5110208;28;1149;-52
2021/12/01 00:10:13;;;;;;;;;;;14.50;99.90;;;;;;5097483;28;990;-52
2021/12/01 00:12:39;;;;;;;;;;;14.50;99.90;;;;;;5098360;28;919;-52
2021/12/01 00:15:05;;;;;;;;;;;14.50;99.90;;;;;;5117435;28;1977;-52
2021/12/01 00:17:31;;;;;;;;;;;14.50;99.90;;;;;;5112962;28;868;-53
2021/12/01 00:19:59;;;;;;;;;;;14.40;99.90;;;;;;5098050;28;798;-53
2021/12/01 00:22:26;;;;;;;;;;;14.40;99.90;;;;;;5102789;28;878;-52
2021/12/01 00:24:52;;;;;;;;;;;14.40;99.90;;;;;;5097996;28;895;-52
2021/12/01 00:27:19;;;;;;;;;;;14.40;99.90;;;;;;5115972;28;875;-52
2021/12/01 00:29:46;;;;;;;;;;;14.40;99.90;;;;;;5116212;28;869;-52
2021/12/01 00:32:12;;;;;;;;;;;14.30;99.90;;;;;;5115112;28;989;-51
2021/12/01 00:34:38;;;;;;;;;;;14.30;99.90;;;;;;5116159;28;1914;-52
2021/12/01 00:37:04;;;;;;;;;;;14.30;99.90;;;;;;5115617;28;872;-52
2021/12/01 00:39:31;;;;;;;;;;;14.30;99.90;;;;;;5109359;28;1371;-52
2021/12/01 00:41:59;;;;;;;;;;;14.30;99.90;;;;;;5103772;28;1470;-52
2021/12/01 00:44:36;;;;;;;;;;;14.30;99.90;;;;;;5096847;28;948;-51
2021/12/01 00:47:06;;;;;;;;;;;14.30;99.90;;;;;;5096850;28;871;-52
2021/12/01 00:49:34;;;;;;;;;;;14.20;99.90;;;;;;5114613;28;1178;-51
2021/12/01 00:52:00;;;;;;;;;;;14.20;99.90;;;;;;5101357;28;908;-51
2021/12/01 00:54:26;;;;;;;;;;;14.20;99.90;;;;;;5098772;28;1963;-52
2021/12/01 00:56:52;;;;;;;;;;;14.20;99.90;;;;;;5111958;28;1348;-54
2021/12/01 00:59:19;;;;;;;;;;;14.20;99.90;;;;;;5115408;28;732;-54
2021/12/01 01:01:46;;;;;;;;;;;14.10;99.90;;;;;;5110786;28;880;-56
2021/12/01 01:04:14;;;;;;;;;;;14.10;99.90;;;;;;5096492;28;912;-55
2021/12/01 01:06:42;;;;;;;;;;;14.10;99.90;;;;;;5096586;28;845;-56
2021/12/01 01:09:09;;;;;;;;;;;14.10;99.90;;;;;;5095053;28;1047;-55
2021/12/01 01:17:24;;;;;;;;;;;14.00;99.90;;;;;;5096995;28;1395;-55
2021/12/01 01:19:51;;;;;;;;;;;14.00;99.90;;;;;;5095827;28;1398;-56
2021/12/01 01:22:18;;;;;;;;;;;14.00;99.90;;;;;;5096167;28;928;-55
2021/12/01 01:24:44;;;;;;;;;;;14.00;99.90;;;;;;5096010;28;848;-55
2021/12/01 01:27:10;;;;;;;;;;;14.00;99.90;;;;;;5113789;28;851;-55
2021/12/01 01:29:37;;;;;;;;;;;14.00;99.90;;;;;;5115744;28;796;-55
2021/12/01 01:32:12;;;;;;;;;;;14.00;99.90;;;;;;5097028;28;1166;-55
2021/12/01 01:34:38;;;;;;;;;;;14.00;99.90;;;;;;5093370;28;1906;-55
2021/12/01 01:37:04;;;;;;;;;;;14.00;99.90;;;;;;5114766;28;912;-55
2021/12/01 01:39:30;;;;;;;;;;;13.90;99.90;;;;;;5114768;28;997;-55
2021/12/01 01:41:56;;;;;;;;;;;13.90;99.90;;;;;;5114738;28;896;-54
2021/12/01 01:44:22;;;;;;;;;;;13.90;99.90;;;;;;5114278;28;943;-55
2021/12/01 01:46:49;;;;;;;;;;;13.90;99.90;;;;;;5114515;28;955;-57
2021/12/01 01:49:18;;;;;;;;;;;13.80;99.90;;;;;;5114695;28;867;-56
2021/12/01 01:51:46;;;;;;;;;;;13.80;99.90;;;;;;5114460;28;836;-57
2021/12/01 01:54:14;;;;;;;;;;;13.80;99.90;;;;;;5114497;28;1963;-56
2021/12/01 01:56:40;;;;;;;;;;;13.80;99.90;;;;;;5114496;28;1084;-57
2021/12/01 01:59:07;;;;;;;;;;;13.80;99.90;;;;;;5110700;28;1039;-56
2021/12/01 02:03:59;;;;;;;;;;;13.80;99.90;;;;;;5095869;28;857;-55
2021/12/01 02:06:26;;;;;;;;;;;13.80;99.90;;;;;;5095601;28;892;-55
2021/12/01 02:08:53;;;;;;;;;;;13.80;99.90;;;;;;5095840;28;926;-56
2021/12/01 02:11:20;;;;;;;;;;;13.80;99.90;;;;;;5095361;28;880;-55
2021/12/01 02:13:47;;;;;;;;;;;13.80;99.90;;;;;;5078112;28;1979;-55
2021/12/01 02:16:14;;;;;;;;;;;13.70;99.90;;;;;;5098975;28;1106;-55
2021/12/01 02:18:40;;;;;;;;;;;13.80;99.90;;;;;;5105640;28;1373;-55
2021/12/01 02:21:08;;;;;;;;;;;13.70;99.90;;;;;;5114593;28;846;-57
2021/12/01 02:23:35;;;;;;;;;;;13.70;99.90;;;;;;5096125;28;1182;-57
2021/12/01 02:26:02;;;;;;;;;;;13.70;99.90;;;;;;5114351;28;904;-55
2021/12/01 02:28:29;;;;;;;;;;;13.70;99.90;;;;;;5114396;28;823;-57
2021/12/01 02:30:57;;;;;;;;;;;13.70;99.90;;;;;;5113965;28;1236;-57
2021/12/01 02:33:25;;;;;;;;;;;13.70;99.90;;;;;;5116722;28;827;-56
2021/12/01 02:35:52;;;;;;;;;;;13.70;99.90;;;;;;5118054;28;1893;-57
2021/12/01 02:38:20;;;;;;;;;;;13.60;99.90;;;;;;5104277;28;843;-55
2021/12/01 02:40:47;;;;;;;;;;;13.60;99.90;;;;;;5087033;28;1372;-55
2021/12/01 02:43:13;;;;;;;;;;;13.60;99.90;;;;;;5069070;28;1006;-54
2021/12/01 02:45:41;;;;;;;;;;;13.60;99.90;;;;;;5099323;28;800;-55
2021/12/01 02:48:11;;;;;;;;;;;13.60;99.90;;;;;;5099033;28;999;-55
2021/12/01 02:50:38;;;;;;;;;;;13.60;99.90;;;;;;5100229;28;812;-55
2021/12/01 02:53:03;;;;;;;;;;;13.60;99.90;;;;;;5116741;28;1392;-55
2021/12/01 02:55:31;;;;;;;;;;;13.50;99.90;;;;;;5107741;28;1962;-55
2021/12/01 02:57:59;;;;;;;;;;;13.50;99.90;;;;;;5098962;28;1315;-55
2021/12/01 03:00:25;;;;;;;;;;;13.50;99.90;;;;;;5099014;28;978;-55
2021/12/01 03:02:51;;;;;;;;;;;13.50;99.90;;;;;;5098910;28;887;-54
2021/12/01 03:05:18;;;;;;;;;;;13.50;99.90;;;;;;5099145;28;1090;-56
2021/12/01 03:07:45;;;;;;;;;;;13.50;99.90;;;;;;5098694;28;810;-54
2021/12/01 03:10:11;;;;;;;;;;;13.50;99.90;;;;;;5117707;28;820;-55
2021/12/01 03:12:38;;;;;;;;;;;13.50;99.90;;;;;;5117541;28;827;-54
2021/12/01 03:15:06;;;;;;;;;;;13.50;99.90;;;;;;5116736;28;2311;-55
2021/12/01 03:17:32;;;;;;;;;;;13.50;99.90;;;;;;5117178;28;883;-54
2021/12/01 03:19:59;;;;;;;;;;;13.50;99.90;;;;;;5101340;28;848;-55
2021/12/01 03:22:26;;;;;;;;;;;13.50;99.90;;;;;;5099801;28;1348;-54
2021/12/01 03:24:53;;;;;;;;;;;13.50;99.90;;;;;;5101618;28;842;-52
2021/12/01 03:27:20;;;;;;;;;;;13.50;99.90;;;;;;5098256;28;840;-56
2021/12/01 03:29:46;;;;;;;;;;;13.50;99.90;;;;;;5098447;28;1031;-54
2021/12/01 03:32:13;;;;;;;;;;;13.40;99.90;;;;;;5097698;28;914;-54
2021/12/01 03:34:40;;;;;;;;;;;13.40;99.90;;;;;;5098198;28;1902;-54
2021/12/01 03:37:06;;;;;;;;;;;13.40;99.90;;;;;;5100053;28;1345;-54
2021/12/01 03:39:32;;;;;;;;;;;13.40;99.90;;;;;;5101053;28;867;-55
2021/12/01 03:41:58;;;;;;;;;;;13.40;99.90;;;;;;5105959;28;1577;-56
2021/12/01 03:44:24;;;;;;;;;;;13.40;99.90;;;;;;5102572;28;1137;-55
2021/12/01 03:46:52;;;;;;;;;;;13.40;99.90;;;;;;5097940;28;860;-55
2021/12/01 03:49:19;;;;;;;;;;;13.40;99.90;;;;;;5096606;28;987;-56
2021/12/01 03:51:45;;;;;;;;;;;13.40;99.90;;;;;;5098110;28;828;-55
2021/12/01 03:54:11;;;;;;;;;;;13.40;99.90;;;;;;5097833;28;1902;-55
2021/12/01 03:56:37;;;;;;;;;;;13.30;99.90;;;;;;5110497;28;1116;-55
2021/12/01 03:59:04;;;;;;;;;;;13.30;99.90;;;;;;5116569;28;1026;-55
2021/12/01 04:01:32;;;;;;;;;;;13.30;99.90;;;;;;5116330;28;1086;-55
2021/12/01 04:03:59;;;;;;;;;;;13.30;99.90;;;;;;5116461;28;856;-55
2021/12/01 04:06:27;;;;;;;;;;;13.30;99.90;;;;;;5116261;28;834;-55
2021/12/01 04:08:53;;;;;;;;;;;13.30;99.90;;;;;;5116580;28;859;-54
2021/12/01 04:11:19;;;;;;;;;;;13.30;99.90;;;;;;5116268;28;900;-55
2021/12/01 04:13:45;;;;;;;;;;;13.30;99.90;;;;;;5116371;28;962;-56
2021/12/01 04:16:11;;;;;;;;;;;13.30;99.90;;;;;;5098247;28;1909;-55
2021/12/01 04:18:39;;;;;;;;;;;13.30;99.90;;;;;;5096616;28;1058;-54
2021/12/01 04:21:05;;;;;;;;;;;13.20;99.90;;;;;;5097345;28;807;-55
2021/12/01 04:23:34;;;;;;;;;;;13.20;99.90;;;;;;5103144;28;871;-55
2021/12/01 04:26:01;;;;;;;;;;;13.20;99.90;;;;;;5105925;28;993;-55
2021/12/01 04:28:27;;;;;;;;;;;13.20;99.90;;;;;;5116470;28;944;-55
2021/12/01 04:30:53;;;;;;;;;;;13.20;99.90;;;;;;5115982;28;911;-55
2021/12/01 04:33:19;;;;;;;;;;;13.20;99.90;;;;;;5115691;28;984;-55
2021/12/01 04:35:48;;;;;;;;;;;13.20;99.90;;;;;;5115734;28;1914;-55
2021/12/01 04:38:14;;;;;;;;;;;13.10;99.90;;;;;;5114903;28;962;-55
2021/12/01 04:40:40;;;;;;;;;;;13.10;99.90;;;;;;5106842;28;1474;-55
2021/12/01 04:43:06;;;;;;;;;;;13.20;99.90;;;;;;5096979;28;890;-55
2021/12/01 04:45:36;;;;;;;;;;;13.20;99.90;;;;;;5102667;28;1092;-56
2021/12/01 04:48:02;;;;;;;;;;;13.10;99.90;;;;;;5110131;28;832;-55
2021/12/01 04:50:28;;;;;;;;;;;13.10;99.90;;;;;;5061586;28;953;-54
2021/12/01 04:52:57;;;;;;;;;;;13.10;99.90;;;;;;5115481;28;871;-55
2021/12/01 04:55:24;;;;;;;;;;;13.10;99.90;;;;;;5115075;28;1906;-55
2021/12/01 04:57:50;;;;;;;;;;;13.10;99.90;;;;;;5115034;28;1248;-55
2021/12/01 05:00:18;;;;;;;;;;;13.10;99.90;;;;;;5115509;28;836;-55
2021/12/01 05:02:44;;;;;;;;;;;13.10;99.90;;;;;;5115277;28;906;-54
2021/12/01 05:05:10;;;;;;;;;;;13.10;99.90;;;;;;5115032;28;868;-55
2021/12/01 05:07:36;;;;;;;;;;;13.10;99.90;;;;;;5115505;28;902;-55
2021/12/01 05:10:03;;;;;;;;;;;13.10;99.90;;;;;;5115324;28;820;-55
2021/12/01 05:12:29;;;;;;;;;;;13.00;99.90;;;;;;5114146;28;871;-55
2021/12/01 05:14:55;;;;;;;;;;;13.00;99.90;;;;;;5079780;28;1914;-55
2021/12/01 05:17:21;;;;;;;;;;;13.00;99.90;;;;;;5114589;28;955;-55
2021/12/01 05:19:48;;;;;;;;;;;13.00;99.90;;;;;;5096418;28;820;-55
2021/12/01 05:22:14;;;;;;;;;;;13.00;99.90;;;;;;5099508;28;883;-55
2021/12/01 05:24:40;;;;;;;;;;;13.00;99.90;;;;;;5096821;28;873;-55
2021/12/01 05:27:07;;;;;;;;;;;13.00;99.90;;;;;;5113938;28;861;-57
2021/12/01 05:29:33;;;;;;;;;;;13.00;99.90;;;;;;5114804;28;1048;-55
2021/12/01 05:31:59;;;;;;;;;;;13.00;99.90;;;;;;5096964;28;877;-55
2021/12/01 05:34:26;;;;;;;;;;;13.00;99.90;;;;;;5114183;28;1973;-55
2021/12/01 05:36:53;;;;;;;;;;;13.00;99.90;;;;;;5097029;28;847;-55
2021/12/01 05:39:19;;;;;;;;;;;13.00;99.90;;;;;;5102127;28;1652;-55
2021/12/01 05:41:45;;;;;;;;;;;13.00;99.90;;;;;;5103871;28;1439;-55
2021/12/01 05:44:12;;;;;;;;;;;13.00;99.90;;;;;;5096020;28;832;-55
2021/12/01 05:46:38;;;;;;;;;;;12.90;99.90;;;;;;5095792;28;875;-55
2021/12/01 05:49:04;;;;;;;;;;;12.90;99.90;;;;;;5096354;28;833;-55
2021/12/01 05:51:30;;;;;;;;;;;12.90;99.90;;;;;;5096128;28;896;-51
2021/12/01 05:53:56;;;;;;;;;;;12.90;99.90;;;;;;5096381;28;898;-55
2021/12/01 05:56:22;;;;;;;;;;;12.90;99.90;;;;;;5107353;28;1956;-55
2021/12/01 05:58:48;;;;;;;;;;;12.90;99.90;;;;;;5114529;28;864;-52
2021/12/01 06:01:14;;;;;;;;;;;12.90;99.90;;;;;;5114850;28;899;-55
2021/12/01 06:03:42;;;;;;;;;;;13.00;99.90;;;;;;5114681;28;877;-55
2021/12/01 06:06:08;;;;;;;;;;;13.00;99.90;;;;;;5114325;28;887;-55
2021/12/01 06:08:34;;;;;;;;;;;13.00;99.90;;;;;;5117411;28;1033;-55
2021/12/01 06:11:01;;;;;;;;;;;13.10;99.90;;;;;;5099825;28;988;-55
2021/12/01 06:13:27;;;;;;;;;;;13.10;99.90;;;;;;5099744;28;1042;-52
2021/12/01 06:15:53;;;;;;;;;;;13.20;99.90;;;;;;5099911;28;1950;-51
2021/12/01 06:18:19;;;;;;;;;;;13.20;99.90;;;;;;5111037;28;840;-55
2021/12/01 06:20:45;;;;;;;;;;;13.30;99.90;;;;;;5118314;28;836;-55
2021/12/01 06:23:12;;;;;;;;;;;13.40;99.90;;;;;;5112881;28;856;-56
2021/12/01 06:25:38;;;;;;;;;;;13.40;99.90;;;;;;5091712;28;1019;-56
2021/12/01 06:28:04;;;;;;;;;;;13.50;99.90;;;;;;5077690;28;924;-55
2021/12/01 06:30:39;;;;;;;;;;;13.70;99.90;;;;;;5077576;28;869;-55
2021/12/01 06:33:05;;;;;;;;;;;13.80;99.90;;;;;;5077514;28;863;-51
2021/12/01 06:35:32;;;;;;;;;;;13.90;99.90;;;;;;5077511;28;1910;-51
2021/12/01 06:37:58;;;;;;;;;;;14.00;99.90;;;;;;5077444;28;836;-51
2021/12/01 06:40:24;;;;;;;;;;;14.10;99.90;;;;;;5093271;28;1486;-51
2021/12/01 06:42:50;;;;;;;;;;;14.30;99.90;;;;;;5096082;28;900;-52
2021/12/01 06:45:16;;;;;;;;;;;14.40;99.90;;;;;;5095916;28;881;-55
2021/12/01 06:47:43;;;;;;;;;;;14.50;99.90;;;;;;5095882;28;849;-55
2021/12/01 06:50:10;;;;;;;;;;;14.70;99.90;;;;;;5095761;28;1000;-55
2021/12/01 06:52:36;;;;;;;;;;;14.80;99.90;;;;;;5095666;28;946;-55
2021/12/01 06:55:03;;;;;;;;;;;14.90;99.90;;;;;;5095755;28;1970;-56
2021/12/01 06:57:29;;;;;;;;;;;14.90;99.90;;;;;;5098694;28;1151;-55
2021/12/01 06:59:55;;;;;;;;;;;15.10;99.90;;;;;;5099370;28;909;-55
2021/12/01 07:02:21;;;;;;;;;;;15.10;99.90;;;;;;5098953;28;1068;-55
2021/12/01 07:04:47;;;;;;;;;;;15.20;99.90;;;;;;5099014;28;879;-55
2021/12/01 07:07:14;;;;;;;;;;;15.20;99.90;;;;;;5104102;28;995;-55
2021/12/01 07:09:40;;;;;;;;;;;15.20;99.90;;;;;;5099120;28;979;-55
2021/12/01 07:12:06;;;;;;;;;;;15.20;99.90;;;;;;5099180;28;949;-55
2021/12/01 07:14:32;;;;;;;;;;;15.20;99.90;;;;;;5098972;28;1906;-55
2021/12/01 07:16:58;;;;;;;;;;;15.20;99.90;;;;;;5099192;28;892;-55
2021/12/01 07:19:26;;;;;;;;;;;15.20;99.90;;;;;;5116367;28;1094;-55
2021/12/01 07:21:52;;;;;;;;;;;15.20;99.90;;;;;;5106545;28;1144;-51
2021/12/01 07:24:20;;;;;;;;;;;15.30;99.90;;;;;;5085488;28;1246;-55
2021/12/01 07:26:46;;;;;;;;;;;15.30;99.90;;;;;;5110333;28;979;-52
2021/12/01 07:29:12;;;;;;;;;;;15.30;99.90;;;;;;5116294;28;1290;-55
2021/12/01 07:31:38;;;;;;;;;;;15.30;99.90;;;;;;5092009;28;1181;-56
2021/12/01 07:34:04;;;;;;;;;;;15.30;99.90;;;;;;5111543;28;1144;-52
2021/12/01 07:36:30;;;;;;;;;;;15.30;99.90;;;;;;5107893;28;1973;-51
2021/12/01 07:38:58;;;;;;;;;;;15.40;99.90;;;;;;5098646;28;1016;-51
2021/12/01 07:41:24;;;;;;;;;;;15.40;99.90;;;;;;5104649;28;1129;-54
2021/12/01 07:43:50;;;;;;;;;;;15.40;99.90;;;;;;5110966;28;961;-56
2021/12/01 07:46:16;;;;;;;;;;;15.50;99.90;;;;;;5092623;28;1045;-56
2021/12/01 07:48:42;;;;;;;;;;;15.50;99.90;;;;;;5113524;28;1317;-57
2021/12/01 07:51:08;;;;;;;;;;;15.50;99.90;;;;;;5111946;28;1091;-56
2021/12/01 07:53:34;;;;;;;;;;;15.50;99.90;;;;;;5110407;28;1091;-55
2021/12/01 07:56:04;;;;;;;;;;;15.50;99.90;;;;;;5107146;28;1906;-52
2021/12/01 07:58:30;;;;;;;;;;;15.50;99.90;;;;;;5115568;28;1048;-52
2021/12/01 08:00:56;;;;;;;;;;;15.50;99.90;;;;;;5107134;28;1609;-53
2021/12/01 08:03:22;;;;;;;;;;;15.50;99.90;;;;;;5103372;28;1549;-55
2021/12/01 08:05:47;;;;;;;;;;;15.50;99.90;;;;;;5099383;28;1517;-55
2021/12/01 08:08:14;;;;;;;;;;;15.50;99.90;;;;;;5104968;28;1231;-57
2021/12/01 08:10:41;;;;;;;;;;;15.50;99.90;;;;;;5096283;28;1485;-52
2021/12/01 08:13:07;;;;;;;;;;;15.60;99.90;;;;;;5106346;28;904;-53
2021/12/01 08:15:33;;;;;;;;;;;15.60;99.90;;;;;;5109719;28;1979;-52
2021/12/01 08:17:59;;;;;;;;;;;15.60;99.90;;;;;;5109502;28;1361;-54
2021/12/01 08:20:26;;;;;;;;;;;15.60;99.90;;;;;;5105095;28;1008;-52
2021/12/01 08:22:54;;;;;;;;;;;15.60;99.90;;;;;;5112331;28;956;-52
2021/12/01 08:25:21;;;;;;;;;;;15.60;99.90;;;;;;5107552;28;1230;-55
2021/12/01 08:27:47;;;;;;;;;;;15.60;99.90;;;;;;5110408;28;961;-55
2021/12/01 08:30:14;;;;;;;;;;;15.70;99.90;;;;;;5111378;28;1340;-55
2021/12/01 08:32:46;;;;;;;;;;;15.60;99.90;;;;;;5107239;28;1909;-55
2021/12/01 08:35:14;;;;;;;;;;;15.60;99.90;;;;;;5107393;28;1919;-56
2021/12/01 08:37:40;;;;;;;;;;;15.70;99.90;;;;;;5064599;28;1139;-55
2021/12/01 08:40:06;;;;;;;;;;;15.70;99.90;;;;;;5107226;28;1320;-56
2021/12/01 08:42:33;;;;;;;;;;;15.70;99.90;;;;;;5108170;28;1075;-60
2021/12/01 08:45:00;;;;;;;;;;;15.70;99.90;;;;;;5112031;28;1072;-55
2021/12/01 08:47:29;;;;;;;;;;;15.80;99.90;;;;;;5113275;28;1158;-52
2021/12/01 08:50:12;;;;;;;;;;;15.90;99.90;;;;;;5111978;28;1099;-52
2021/12/01 08:52:38;;;;;;;;;;;16.00;99.90;;;;;;5108675;28;987;-57
2021/12/01 08:55:05;;;;;;;;;;;16.00;99.90;;;;;;5107784;28;1977;-57
2021/12/01 08:57:32;;;;;;;;;;;16.00;99.90;;;;;;5082187;28;1250;-55
2021/12/01 08:59:59;;;;;;;;;;;16.10;99.90;;;;;;5088582;28;985;-55
2021/12/01 09:02:26;;;;;;;;;;;16.10;99.90;;;;;;5064851;28;1083;-55
2021/12/01 09:04:52;;;;;;;;;;;16.20;99.90;;;;;;5089153;28;973;-55
2021/12/01 09:07:20;;;;;;;;;;;16.20;99.90;;;;;;5083782;28;1249;-55
2021/12/01 09:09:46;;;;;;;;;;;16.20;99.90;;;;;;5082197;28;1513;-56
2021/12/01 09:12:14;;;;;;;;;;;16.30;99.90;;;;;;5092483;28;1096;-56
2021/12/01 09:14:41;;;;;;;;;;;16.50;99.90;;;;;;5088920;28;1260;-55
2021/12/01 09:17:09;;;;;;;;;;;16.80;99.90;;;;;;5088619;28;1969;-56
2021/12/01 09:19:36;;;;;;;;;;;16.90;99.90;;;;;;5091003;28;1151;-53
2021/12/01 09:22:02;;;;;;;;;;;17.00;99.90;;;;;;5087417;28;1305;-52
2021/12/01 09:24:29;;;;;;;;;;;16.90;99.90;;;;;;5092572;28;1072;-52
2021/12/01 09:26:56;;;;;;;;;;;16.90;99.90;;;;;;5086881;28;960;-51
2021/12/01 09:29:22;;;;;;;;;;;16.90;99.90;;;;;;5087164;28;1130;-52
2021/12/01 09:31:48;;;;;;;;;;;16.80;99.90;;;;;;5090368;28;1067;-52
2021/12/01 09:34:15;;;;;;;;;;;16.80;99.90;;;;;;5088257;28;1044;-52
2021/12/01 09:36:41;;;;;;;;;;;16.80;99.90;;;;;;5089626;28;1906;-52
2021/12/01 09:39:08;;;;;;;;;;;16.80;99.90;;;;;;5091403;28;1043;-52
2021/12/01 09:41:34;;;;;;;;;;;16.70;99.90;;;;;;5089251;28;961;-52
2021/12/01 09:44:05;;;;;;;;;;;16.70;99.90;;;;;;5093942;28;1005;-51
2021/12/01 09:46:33;;;;;;;;;;;16.60;99.90;;;;;;5088838;28;962;-51
2021/12/01 09:49:01;;;;;;;;;;;16.60;99.90;;;;;;5087902;28;1096;-51
2021/12/01 09:51:27;;;;;;;;;;;16.50;99.90;;;;;;5087701;28;1058;-51
2021/12/01 09:53:55;;;;;;;;;;;16.40;99.90;;;;;;5070981;28;1045;-52
2021/12/01 09:56:22;;;;;;;;;;;16.40;99.90;;;;;;5084252;28;1910;-52
2021/12/01 09:58:48;;;;;;;;;;;16.40;99.90;;;;;;5092224;28;1039;-52
2021/12/01 10:01:15;;;;;;;;;;;16.40;99.90;;;;;;5091469;28;1113;-52
2021/12/01 10:03:42;;;;;;;;;;;16.40;99.90;;;;;;5085301;28;1075;-52
2021/12/01 10:06:13;;;;;;;;;;;16.40;99.90;;;;;;5095007;28;858;-52
2021/12/01 10:08:47;;;;;;;;;;;16.40;99.90;;;;;;5095284;28;1525;-52
2021/12/01 10:11:16;;;;;;;;;;;16.40;99.90;;;;;;5088766;28;1078;-52
2021/12/01 10:13:44;;;;;;;;;;;16.50;99.90;;;;;;5071060;28;1551;-52
2021/12/01 10:16:12;;;;;;;;;;;16.40;99.90;;;;;;5087314;28;1910;-52
2021/12/01 10:18:42;;;;;;;;;;;16.40;99.90;;;;;;5091648;28;1503;-52
2021/12/01 10:21:15;;;;;;;;;;;16.40;99.90;;;;;;5069413;28;1266;-52
2021/12/01 10:23:47;;;;;;;;;;;16.40;99.90;;;;;;5080174;28;1217;-52
2021/12/01 10:26:36;;;;;;;;;;;16.50;99.90;;;;;;5087125;28;1162;-52
2021/12/01 10:29:05;;;;;;;;;;;16.50;99.90;;;;;;5082601;28;1194;-52
2021/12/01 10:31:31;;;;;;;;;;;16.50;99.90;;;;;;5081076;28;1047;-53
2021/12/01 10:34:18;;;;;;;;;;;16.60;99.90;;;;;;5086902;28;1465;-52
2021/12/01 10:36:47;;;;;;;;;;;16.70;99.90;;;;;;5075558;28;1910;-52
2021/12/01 10:39:13;;;;;;;;;;;16.60;99.90;;;;;;5076193;28;1315;-52
2021/12/01 10:41:42;;;;;;;;;;;16.60;99.90;;;;;;5064044;28;1744;-52
2021/12/01 10:44:09;;;;;;;;;;;16.60;99.90;;;;;;5076025;28;948;-52
2021/12/01 10:46:55;;;;;;;;;;;16.70;99.90;;;;;;5076164;28;816;-52
2021/12/01 10:49:37;;;;;;;;;;;16.70;99.90;;;;;;5076152;28;1180;-52
2021/12/01 10:52:07;;;;;;;;;;;16.70;99.90;;;;;;5077408;28;1281;-52
2021/12/01 10:54:35;;;;;;;;;;;16.70;99.90;;;;;;5078521;28;1095;-52
2021/12/01 10:57:19;;;;;;;;;;;16.70;99.90;;;;;;5107212;28;1918;-52
2021/12/01 10:59:46;;;;;;;;;;;16.70;99.90;;;;;;5118813;28;892;-52
2021/12/01 11:02:12;;;;;;;;;;;16.70;99.90;;;;;;5118380;28;824;-51
2021/12/01 11:04:51;;;;;;;;;;;16.80;99.90;;;;;;5118585;28;929;-52
2021/12/01 11:07:27;;;;;;;;;;;16.80;99.90;;;;;;5118526;28;815;-52
2021/12/01 11:10:12;;;;;;;;;;;16.80;99.90;;;;;;5117895;28;966;-52
2021/12/01 11:12:38;;;;;;;;;;;16.80;99.90;;;;;;5118120;28;891;-52
2021/12/01 11:15:16;;;;;;;;;;;16.90;99.90;;;;;;5100542;28;835;-52
2021/12/01 11:17:42;;;;;;;;;;;16.90;99.90;;;;;;5113670;28;991;-52
2021/12/01 11:20:09;;;;;;;;;;;16.90;99.90;;;;;;5078934;28;1001;-52
2021/12/01 11:22:36;;;;;;;;;;;16.90;99.90;;;;;;5105338;28;1040;-52
2021/12/01 11:25:15;;;;;;;;;;;16.90;99.90;;;;;;5105662;28;1495;-52
2021/12/01 11:27:42;;;;;;;;;;;16.90;99.90;;;;;;5118177;28;839;-52
2021/12/01 11:30:08;;;;;;;;;;;16.90;99.90;;;;;;5118038;28;821;-51
2021/12/01 11:32:34;;;;;;;;;;;16.90;99.90;;;;;;5117930;28;875;-52
2021/12/01 11:35:01;;;;;;;;;;;16.90;99.90;;;;;;5117980;28;1132;-52
2021/12/01 11:37:29;;;;;;;;;;;16.80;99.90;;;;;;5108703;28;1910;-52
2021/12/01 11:39:56;;;;;;;;;;;16.80;99.90;;;;;;5099066;28;877;-52
2021/12/01 11:42:23;;;;;;;;;;;16.90;99.90;;;;;;5111418;28;1118;-52
2021/12/01 11:44:51;;;;;;;;;;;16.90;99.90;;;;;;5110446;28;1201;-52
2021/12/01 11:47:17;;;;;;;;;;;16.90;99.90;;;;;;5113980;28;1166;-52
2021/12/01 11:49:43;;;;;;;;;;;16.80;99.90;;;;;;5109022;28;1067;-52
2021/12/01 11:52:10;;;;;;;;;;;16.80;99.90;;;;;;5112769;28;1182;-52
2021/12/01 11:54:43;;;;;;;;;;;16.80;99.90;;;;;;5113678;28;1068;-52
2021/12/01 11:57:09;;;;;;;;;;;16.80;99.90;;;;;;5108960;28;1898;-52
2021/12/01 11:59:37;;;;;;;;;;;16.80;99.90;;;;;;5113079;28;1133;-52
2021/12/01 12:02:04;;;;;;;;;;;16.80;99.90;;;;;;5104772;28;1169;-52
2021/12/01 12:04:44;;;;;;;;;;;16.80;99.90;;;;;;5100808;28;1008;-52
2021/12/01 12:07:10;;;;;;;;;;;16.80;99.90;;;;;;5102185;28;1018;-52
2021/12/01 12:09:37;;;;;;;;;;;16.90;99.90;;;;;;5104856;28;1075;-52
2021/12/01 12:12:09;;;;;;;;;;;17.10;99.90;;;;;;5097404;28;1213;-52
2021/12/01 12:14:43;;;;;;;;;;;17.00;99.90;;;;;;5099427;28;1126;-52
2021/12/01 12:17:14;;;;;;;;;;;17.00;99.90;;;;;;5110679;28;1977;-52
2021/12/01 12:19:43;;;;;;;;;;;16.90;99.90;;;;;;5097464;28;894;-52
2021/12/01 12:22:17;;;;;;;;;;;16.90;99.90;;;;;;5097961;28;886;-52
2021/12/01 12:24:50;;;;;;;;;;;16.90;99.90;;;;;;5104355;28;1167;-52
2021/12/01 12:27:29;;;;;;;;;;;16.90;99.90;;;;;;5082447;28;918;-51
2021/12/01 12:29:57;;;;;;;;;;;16.90;99.90;;;;;;5080509;28;913;-52
2021/12/01 12:32:24;;;;;;;;;;;16.90;99.90;;;;;;5104327;28;1161;-51
2021/12/01 12:34:51;;;;;;;;;;;17.00;99.90;;;;;;5111710;28;1071;-52
2021/12/01 12:37:22;;;;;;;;;;;17.40;99.90;;;;;;5105267;28;1973;-52
2021/12/01 12:39:48;;;;;;;;;;;17.50;99.90;;;;;;5097985;28;887;-52
2021/12/01 12:42:15;;;;;;;;;;;17.30;99.90;;;;;;5098931;28;973;-51
2021/12/01 12:44:47;;;;;;;;;;;17.20;99.90;;;;;;5107731;28;1508;-52
2021/12/01 12:47:44;;;;;;;;;;;17.20;99.90;;;;;;5103932;28;1091;-51
2021/12/01 12:50:13;;;;;;;;;;;17.30;99.90;;;;;;5100773;28;1368;-51
2021/12/01 12:52:41;;;;;;;;;;;17.80;99.90;;;;;;5095688;28;717;-52
2021/12/01 12:55:09;;;;;;;;;;;18.00;99.90;;;;;;5096806;28;1242;-51
2021/12/01 12:57:54;;;;;;;;;;;18.10;99.90;;;;;;5114568;28;1902;-52
2021/12/01 13:00:23;;;;;;;;;;;18.20;99.90;;;;;;5116387;28;926;-52
2021/12/01 13:02:52;;;;;;;;;;;18.40;99.90;;;;;;5115920;28;955;-52
2021/12/01 13:05:38;;;;;;;;;;;18.40;99.90;;;;;;5116236;28;1091;-52
2021/12/01 13:08:23;;;;;;;;;;;18.30;99.90;;;;;;5114954;28;1036;-72
2021/12/01 13:10:50;;;;;;;;;;;18.10;99.90;;;;;;5097775;28;840;-52
2021/12/01 13:13:25;;;;;;;;;;;18.00;99.90;;;;;;5097123;28;895;-52
2021/12/01 13:15:52;;;;;;;;;;;17.90;99.90;;;;;;5096439;28;1913;-52
2021/12/01 13:18:21;;;;;;;;;;;17.80;99.90;;;;;;5097524;28;905;-52
2021/12/01 13:20:50;;;;;;;;;;;17.50;99.90;;;;;;5105298;28;1176;-52
2021/12/01 13:23:35;;;;;;;;;;;17.10;99.90;;;;;;5097105;28;907;-53
2021/12/01 13:26:03;;;;;;;;;;;16.90;99.90;;;;;;5110887;28;868;-52
2021/12/01 13:28:48;;;;;;;;;;;17.00;99.90;;;;;;5114195;28;1407;-52
2021/12/01 13:31:17;;;;;;;;;;;17.10;99.90;;;;;;5101754;28;1276;-52
2021/12/01 13:33:55;;;;;;;;;;;17.10;99.90;;;;;;5044393;28;1471;-52
2021/12/01 13:36:23;;;;;;;;;;;17.00;99.90;;;;;;5095413;28;1905;-53
2021/12/01 13:39:04;;;;;;;;;;;16.70;99.90;;;;;;5096979;28;969;-52
2021/12/01 13:41:36;;;;;;;;;;;16.50;99.90;;;;;;5097379;28;850;-52
2021/12/01 13:44:04;;;;;;;;;;;16.40;99.90;;;;;;5115369;28;847;-52
2021/12/01 13:46:30;;;;;;;;;;;16.30;99.90;;;;;;5115426;28;1267;-55
2021/12/01 13:48:56;;;;;;;;;;;16.20;99.90;;;;;;5101290;28;911;-55
2021/12/01 13:51:24;;;;;;;;;;;16.10;99.90;;;;;;5096258;28;860;-57
2021/12/01 13:53:51;;;;;;;;;;;16.10;99.90;;;;;;5096556;28;844;-55
2021/12/01 13:56:28;;;;;;;;;;;16.00;99.90;;;;;;5107383;28;1964;-52
2021/12/01 13:58:58;;;;;;;;;;;15.90;99.90;;;;;;5114900;28;819;-56
2021/12/01 14:01:25;;;;;;;;;;;15.90;99.90;;;;;;5114620;28;966;-52
2021/12/01 14:04:12;;;;;;;;;;;15.80;99.90;;;;;;5097302;28;982;-53
2021/12/01 14:06:38;;;;;;;;;;;15.80;99.90;;;;;;5115381;28;920;-52
2021/12/01 14:09:10;;;;;;;;;;;15.80;99.90;;;;;;5114835;28;1392;-57
2021/12/01 14:11:38;;;;;;;;;;;15.70;99.90;;;;;;5105819;28;1015;-56
2021/12/01 14:14:05;;;;;;;;;;;15.60;99.90;;;;;;5095990;28;855;-56
2021/12/01 14:16:32;;;;;;;;;;;15.60;99.90;;;;;;5096286;28;1968;-56
2021/12/01 14:18:59;;;;;;;;;;;15.60;99.90;;;;;;5096826;28;897;-52
2021/12/01 14:21:30;;;;;;;;;;;15.60;99.90;;;;;;5078853;28;1372;-55
2021/12/01 14:24:01;;;;;;;;;;;15.50;99.90;;;;;;5078829;28;930;-55
2021/12/01 14:26:35;;;;;;;;;;;15.60;99.90;;;;;;5114115;28;1536;-56
2021/12/01 14:29:03;;;;;;;;;;;15.50;99.90;;;;;;5098072;28;993;-52
2021/12/01 14:31:29;;;;;;;;;;;15.50;99.90;;;;;;5100305;28;933;-52
2021/12/01 14:34:02;;;;;;;;;;;15.60;99.90;;;;;;5100342;28;831;-52
2021/12/01 14:36:28;;;;;;;;;;;15.50;99.90;;;;;;5100400;28;1901;-52
2021/12/01 14:38:56;;;;;;;;;;;15.50;99.90;;;;;;5100273;28;1582;-52
2021/12/01 14:41:23;;;;;;;;;;;15.60;99.90;;;;;;5082826;28;1121;-52
2021/12/01 14:43:58;;;;;;;;;;;15.50;99.90;;;;;;5100320;28;803;-55
2021/12/01 14:46:29;;;;;;;;;;;15.50;99.90;;;;;;5082811;28;939;-55
2021/12/01 14:49:00;;;;;;;;;;;15.50;99.90;;;;;;5099287;28;983;-52